sensor_id;sensor_type;location;lat;lon;timestamp;P1;durP1;ratioP1;P2;durP2;ratioP2
45114;SDS011;30877;43.706;10.780;2023-08-08T00:01:35;0.80;;;0.30;;
45114;SDS011;30877;43.706;10.780;2023-08-08T00:04:04;1.65;;;0.50;;
45114;SDS011;30877;43.706;10.780;2023-08-08T00:06:33;1.60;;;0.45;;
45114;SDS011;30877;43.706;10.780;2023-08-08T00:09:02;2.42;;;0.40;;
45114;SDS011;30877;43.706;10.780;2023-08-08T00:11:31;2.95;;;0.40;;
45114;SDS011;30877;43.706;10.780;2023-08-08T00:13:59;1.88;;;0.30;;
45114;SDS011;30877;43.706;10.780;2023-08-08T00:16:27;0.95;;;0.30;;
45114;SDS011;30877;43.706;10.780;2023-08-08T00:18:55;2.97;;;0.40;;
45114;SDS011;30877;43.706;10.780;2023-08-08T00:21:24;1.55;;;0.30;;
45114;SDS011;30877;43.706;10.780;2023-08-08T00:23:53;3.13;;;0.55;;
45114;SDS011;30877;43.706;10.780;2023-08-08T00:26:22;2.55;;;0.70;;
45114;SDS011;30877;43.706;10.780;2023-08-08T00:28:50;2.78;;;0.40;;
45114;SDS011;30877;43.706;10.780;2023-08-08T00:31:18;1.08;;;0.40;;
45114;SDS011;30877;43.706;10.780;2023-08-08T00:33:47;2.97;;;0.60;;
45114;SDS011;30877;43.706;10.780;2023-08-08T00:36:15;1.30;;;0.40;;
45114;SDS011;30877;43.706;10.780;2023-08-08T00:38:43;3.17;;;0.60;;
45114;SDS011;30877;43.706;10.780;2023-08-08T00:41:13;1.48;;;0.30;;
45114;SDS011;30877;43.706;10.780;2023-08-08T00:43:42;0.70;;;0.43;;
45114;SDS011;30877;43.706;10.780;2023-08-08T00:46:10;1.15;;;0.38;;
45114;SDS011;30877;43.706;10.780;2023-08-08T00:48:39;1.15;;;0.38;;
45114;SDS011;30877;43.706;10.780;2023-08-08T00:51:07;1.45;;;0.30;;
45114;SDS011;30877;43.706;10.780;2023-08-08T00:53:36;2.25;;;0.52;;
45114;SDS011;30877;43.706;10.780;2023-08-08T00:56:05;2.40;;;0.35;;
45114;SDS011;30877;43.706;10.780;2023-08-08T00:58:36;1.25;;;0.50;;
45114;SDS011;30877;43.706;10.780;2023-08-08T01:01:04;2.58;;;0.50;;
45114;SDS011;30877;43.706;10.780;2023-08-08T01:03:33;1.20;;;0.52;;
45114;SDS011;30877;43.706;10.780;2023-08-08T01:06:03;1.27;;;0.50;;
45114;SDS011;30877;43.706;10.780;2023-08-08T01:08:39;0.95;;;0.30;;
45114;SDS011;30877;43.706;10.780;2023-08-08T01:11:13;1.92;;;0.52;;
45114;SDS011;30877;43.706;10.780;2023-08-08T01:13:45;0.85;;;0.57;;
45114;SDS011;30877;43.706;10.780;2023-08-08T01:16:14;2.42;;;0.28;;
45114;SDS011;30877;43.706;10.780;2023-08-08T01:18:45;3.63;;;0.30;;
45114;SDS011;30877;43.706;10.780;2023-08-08T01:21:16;2.47;;;0.30;;
45114;SDS011;30877;43.706;10.780;2023-08-08T01:23:46;2.25;;;0.40;;
45114;SDS011;30877;43.706;10.780;2023-08-08T01:26:22;1.83;;;0.32;;
45114;SDS011;30877;43.706;10.780;2023-08-08T01:28:52;3.28;;;0.43;;
45114;SDS011;30877;43.706;10.780;2023-08-08T01:31:22;1.73;;;0.45;;
45114;SDS011;30877;43.706;10.780;2023-08-08T01:33:50;1.38;;;0.30;;
45114;SDS011;30877;43.706;10.780;2023-08-08T01:36:20;0.63;;;0.30;;
45114;SDS011;30877;43.706;10.780;2023-08-08T01:38:52;1.85;;;0.40;;
45114;SDS011;30877;43.706;10.780;2023-08-08T01:41:28;4.03;;;0.35;;
45114;SDS011;30877;43.706;10.780;2023-08-08T01:43:57;1.75;;;0.40;;
45114;SDS011;30877;43.706;10.780;2023-08-08T01:46:26;1.13;;;0.30;;
45114;SDS011;30877;43.706;10.780;2023-08-08T01:48:57;2.30;;;0.30;;
45114;SDS011;30877;43.706;10.780;2023-08-08T01:51:26;3.13;;;0.57;;
45114;SDS011;30877;43.706;10.780;2023-08-08T01:53:55;3.90;;;0.68;;
45114;SDS011;30877;43.706;10.780;2023-08-08T01:56:23;2.17;;;0.40;;
45114;SDS011;30877;43.706;10.780;2023-08-08T01:58:53;1.65;;;0.35;;
45114;SDS011;30877;43.706;10.780;2023-08-08T02:01:21;1.23;;;0.35;;
45114;SDS011;30877;43.706;10.780;2023-08-08T02:03:49;1.15;;;0.30;;
45114;SDS011;30877;43.706;10.780;2023-08-08T02:06:17;1.02;;;0.38;;
45114;SDS011;30877;43.706;10.780;2023-08-08T02:08:45;3.70;;;0.65;;
45114;SDS011;30877;43.706;10.780;2023-08-08T02:11:13;1.38;;;0.40;;
45114;SDS011;30877;43.706;10.780;2023-08-08T02:13:42;2.65;;;0.50;;
45114;SDS011;30877;43.706;10.780;2023-08-08T02:16:11;2.72;;;0.35;;
45114;SDS011;30877;43.706;10.780;2023-08-08T02:18:39;2.25;;;0.40;;
45114;SDS011;30877;43.706;10.780;2023-08-08T02:21:08;1.20;;;0.40;;
45114;SDS011;30877;43.706;10.780;2023-08-08T02:23:37;1.48;;;0.63;;
45114;SDS011;30877;43.706;10.780;2023-08-08T02:26:05;1.95;;;0.35;;
45114;SDS011;30877;43.706;10.780;2023-08-08T02:28:33;1.25;;;0.30;;
45114;SDS011;30877;43.706;10.780;2023-08-08T02:31:01;1.15;;;0.50;;
45114;SDS011;30877;43.706;10.780;2023-08-08T02:33:31;3.60;;;0.52;;
45114;SDS011;30877;43.706;10.780;2023-08-08T02:35:59;0.60;;;0.22;;
45114;SDS011;30877;43.706;10.780;2023-08-08T02:38:27;1.75;;;0.47;;
45114;SDS011;30877;43.706;10.780;2023-08-08T02:40:55;2.75;;;0.40;;
45114;SDS011;30877;43.706;10.780;2023-08-08T02:43:23;3.08;;;0.52;;
45114;SDS011;30877;43.706;10.780;2023-08-08T02:45:51;3.92;;;0.50;;
45114;SDS011;30877;43.706;10.780;2023-08-08T02:48:19;3.83;;;0.60;;
45114;SDS011;30877;43.706;10.780;2023-08-08T02:50:50;1.13;;;0.30;;
45114;SDS011;30877;43.706;10.780;2023-08-08T02:53:21;0.70;;;0.30;;
45114;SDS011;30877;43.706;10.780;2023-08-08T02:55:49;2.28;;;0.50;;
45114;SDS011;30877;43.706;10.780;2023-08-08T02:58:17;0.50;;;0.30;;
45114;SDS011;30877;43.706;10.780;2023-08-08T03:00:45;3.00;;;0.30;;
45114;SDS011;30877;43.706;10.780;2023-08-08T03:03:18;1.23;;;0.30;;
45114;SDS011;30877;43.706;10.780;2023-08-08T03:05:47;1.95;;;0.30;;
45114;SDS011;30877;43.706;10.780;2023-08-08T03:08:20;1.98;;;0.50;;
45114;SDS011;30877;43.706;10.780;2023-08-08T03:10:49;1.70;;;0.50;;
45114;SDS011;30877;43.706;10.780;2023-08-08T03:13:18;1.20;;;0.32;;
45114;SDS011;30877;43.706;10.780;2023-08-08T03:15:48;0.40;;;0.25;;
45114;SDS011;30877;43.706;10.780;2023-08-08T03:18:17;0.95;;;0.30;;
45114;SDS011;30877;43.706;10.780;2023-08-08T03:20:46;1.38;;;0.38;;
45114;SDS011;30877;43.706;10.780;2023-08-08T03:23:17;1.95;;;0.40;;
45114;SDS011;30877;43.706;10.780;2023-08-08T03:25:50;0.85;;;0.40;;
45114;SDS011;30877;43.706;10.780;2023-08-08T03:28:28;1.60;;;0.52;;
45114;SDS011;30877;43.706;10.780;2023-08-08T03:30:58;2.75;;;0.60;;
45114;SDS011;30877;43.706;10.780;2023-08-08T03:33:28;1.13;;;0.30;;
45114;SDS011;30877;43.706;10.780;2023-08-08T03:35:58;0.63;;;0.38;;
45114;SDS011;30877;43.706;10.780;2023-08-08T03:38:29;1.48;;;0.35;;
45114;SDS011;30877;43.706;10.780;2023-08-08T03:40:59;1.55;;;0.50;;
45114;SDS011;30877;43.706;10.780;2023-08-08T03:43:29;1.10;;;0.30;;
45114;SDS011;30877;43.706;10.780;2023-08-08T03:45:58;1.98;;;0.32;;
45114;SDS011;30877;43.706;10.780;2023-08-08T03:48:28;1.27;;;0.30;;
45114;SDS011;30877;43.706;10.780;2023-08-08T03:50:58;2.65;;;0.40;;
45114;SDS011;30877;43.706;10.780;2023-08-08T03:53:27;1.38;;;0.28;;
45114;SDS011;30877;43.706;10.780;2023-08-08T03:55:57;2.15;;;0.50;;
45114;SDS011;30877;43.706;10.780;2023-08-08T03:58:30;0.80;;;0.30;;
45114;SDS011;30877;43.706;10.780;2023-08-08T04:00:59;2.75;;;0.50;;
45114;SDS011;30877;43.706;10.780;2023-08-08T04:03:28;2.72;;;0.30;;
45114;SDS011;30877;43.706;10.780;2023-08-08T04:05:57;1.10;;;0.40;;
45114;SDS011;30877;43.706;10.780;2023-08-08T04:08:26;3.83;;;0.30;;
45114;SDS011;30877;43.706;10.780;2023-08-08T04:10:57;2.17;;;0.50;;
45114;SDS011;30877;43.706;10.780;2023-08-08T04:13:26;1.63;;;0.28;;
45114;SDS011;30877;43.706;10.780;2023-08-08T04:15:55;1.27;;;0.38;;
45114;SDS011;30877;43.706;10.780;2023-08-08T04:18:24;1.50;;;0.47;;
45114;SDS011;30877;43.706;10.780;2023-08-08T04:20:53;3.17;;;0.50;;
45114;SDS011;30877;43.706;10.780;2023-08-08T04:23:22;1.60;;;0.50;;
45114;SDS011;30877;43.706;10.780;2023-08-08T04:25:55;1.85;;;0.55;;
45114;SDS011;30877;43.706;10.780;2023-08-08T04:28:24;2.13;;;0.47;;
45114;SDS011;30877;43.706;10.780;2023-08-08T04:30:53;2.13;;;0.50;;
45114;SDS011;30877;43.706;10.780;2023-08-08T04:33:22;1.25;;;0.50;;
45114;SDS011;30877;43.706;10.780;2023-08-08T04:35:51;1.75;;;0.45;;
45114;SDS011;30877;43.706;10.780;2023-08-08T04:38:20;2.67;;;0.43;;
45114;SDS011;30877;43.706;10.780;2023-08-08T04:40:49;1.80;;;0.60;;
45114;SDS011;30877;43.706;10.780;2023-08-08T04:43:19;1.77;;;0.60;;
45114;SDS011;30877;43.706;10.780;2023-08-08T04:45:48;1.48;;;0.40;;
45114;SDS011;30877;43.706;10.780;2023-08-08T04:48:18;1.75;;;0.52;;
45114;SDS011;30877;43.706;10.780;2023-08-08T04:50:47;2.97;;;0.50;;
45114;SDS011;30877;43.706;10.780;2023-08-08T04:53:16;2.83;;;1.10;;
45114;SDS011;30877;43.706;10.780;2023-08-08T04:55:45;3.35;;;1.00;;
45114;SDS011;30877;43.706;10.780;2023-08-08T04:58:15;2.47;;;0.70;;
45114;SDS011;30877;43.706;10.780;2023-08-08T05:00:45;2.70;;;1.63;;
45114;SDS011;30877;43.706;10.780;2023-08-08T05:03:14;14.52;;;2.20;;
45114;SDS011;30877;43.706;10.780;2023-08-08T05:05:43;4.45;;;1.05;;
45114;SDS011;30877;43.706;10.780;2023-08-08T05:08:12;3.53;;;1.20;;
45114;SDS011;30877;43.706;10.780;2023-08-08T05:10:42;4.03;;;0.73;;
45114;SDS011;30877;43.706;10.780;2023-08-08T05:13:12;2.25;;;0.70;;
45114;SDS011;30877;43.706;10.780;2023-08-08T05:15:41;2.75;;;0.80;;
45114;SDS011;30877;43.706;10.780;2023-08-08T05:18:11;2.83;;;0.55;;
45114;SDS011;30877;43.706;10.780;2023-08-08T05:20:40;3.75;;;0.85;;
45114;SDS011;30877;43.706;10.780;2023-08-08T05:23:09;1.88;;;0.65;;
45114;SDS011;30877;43.706;10.780;2023-08-08T05:25:38;2.40;;;0.70;;
45114;SDS011;30877;43.706;10.780;2023-08-08T05:28:08;1.25;;;0.35;;
45114;SDS011;30877;43.706;10.780;2023-08-08T05:30:37;1.65;;;0.35;;
45114;SDS011;30877;43.706;10.780;2023-08-08T05:33:06;3.28;;;0.40;;
45114;SDS011;30877;43.706;10.780;2023-08-08T05:35:36;2.78;;;0.43;;
45114;SDS011;30877;43.706;10.780;2023-08-08T05:38:05;1.63;;;0.70;;
45114;SDS011;30877;43.706;10.780;2023-08-08T05:40:34;2.78;;;0.50;;
45114;SDS011;30877;43.706;10.780;2023-08-08T05:43:03;0.45;;;0.22;;
45114;SDS011;30877;43.706;10.780;2023-08-08T05:45:32;2.85;;;0.50;;
45114;SDS011;30877;43.706;10.780;2023-08-08T05:48:01;2.28;;;0.40;;
45114;SDS011;30877;43.706;10.780;2023-08-08T05:50:31;2.22;;;0.40;;
45114;SDS011;30877;43.706;10.780;2023-08-08T05:53:02;1.10;;;0.50;;
45114;SDS011;30877;43.706;10.780;2023-08-08T05:55:31;3.63;;;0.93;;
45114;SDS011;30877;43.706;10.780;2023-08-08T05:58:00;2.45;;;0.80;;
45114;SDS011;30877;43.706;10.780;2023-08-08T06:00:29;5.00;;;0.90;;
45114;SDS011;30877;43.706;10.780;2023-08-08T06:02:59;1.45;;;0.40;;
45114;SDS011;30877;43.706;10.780;2023-08-08T06:05:28;3.00;;;0.60;;
45114;SDS011;30877;43.706;10.780;2023-08-08T06:07:57;2.58;;;0.55;;
45114;SDS011;30877;43.706;10.780;2023-08-08T06:10:27;4.88;;;0.70;;
45114;SDS011;30877;43.706;10.780;2023-08-08T06:12:56;1.85;;;0.50;;
45114;SDS011;30877;43.706;10.780;2023-08-08T06:15:27;1.75;;;0.50;;
45114;SDS011;30877;43.706;10.780;2023-08-08T06:17:56;1.52;;;0.55;;
45114;SDS011;30877;43.706;10.780;2023-08-08T06:20:25;3.65;;;0.90;;
45114;SDS011;30877;43.706;10.780;2023-08-08T06:22:56;3.40;;;0.50;;
45114;SDS011;30877;43.706;10.780;2023-08-08T06:25:26;1.85;;;0.57;;
45114;SDS011;30877;43.706;10.780;2023-08-08T06:27:55;2.28;;;0.50;;
45114;SDS011;30877;43.706;10.780;2023-08-08T06:30:25;3.20;;;0.52;;
45114;SDS011;30877;43.706;10.780;2023-08-08T06:32:54;5.35;;;1.02;;
45114;SDS011;30877;43.706;10.780;2023-08-08T06:35:23;2.60;;;0.52;;
45114;SDS011;30877;43.706;10.780;2023-08-08T06:37:51;1.48;;;0.75;;
45114;SDS011;30877;43.706;10.780;2023-08-08T06:40:19;3.15;;;0.85;;
45114;SDS011;30877;43.706;10.780;2023-08-08T06:42:49;1.98;;;1.00;;
45114;SDS011;30877;43.706;10.780;2023-08-08T06:45:17;3.10;;;0.98;;
45114;SDS011;30877;43.706;10.780;2023-08-08T06:47:46;2.78;;;1.10;;
45114;SDS011;30877;43.706;10.780;2023-08-08T06:50:13;3.15;;;1.10;;
45114;SDS011;30877;43.706;10.780;2023-08-08T06:52:42;7.22;;;1.30;;
45114;SDS011;30877;43.706;10.780;2023-08-08T06:55:10;14.52;;;1.88;;
45114;SDS011;30877;43.706;10.780;2023-08-08T06:57:38;4.00;;;1.45;;
45114;SDS011;30877;43.706;10.780;2023-08-08T07:00:08;3.65;;;1.80;;
45114;SDS011;30877;43.706;10.780;2023-08-08T07:02:40;4.45;;;1.88;;
45114;SDS011;30877;43.706;10.780;2023-08-08T07:05:09;5.57;;;1.98;;
45114;SDS011;30877;43.706;10.780;2023-08-08T07:07:38;5.60;;;1.88;;
45114;SDS011;30877;43.706;10.780;2023-08-08T07:10:06;5.18;;;2.05;;
45114;SDS011;30877;43.706;10.780;2023-08-08T07:12:34;5.47;;;2.10;;
45114;SDS011;30877;43.706;10.780;2023-08-08T07:15:03;4.57;;;1.80;;
45114;SDS011;30877;43.706;10.780;2023-08-08T07:17:35;4.75;;;1.77;;
45114;SDS011;30877;43.706;10.780;2023-08-08T07:20:04;5.60;;;1.83;;
45114;SDS011;30877;43.706;10.780;2023-08-08T07:22:33;4.85;;;1.77;;
45114;SDS011;30877;43.706;10.780;2023-08-08T07:25:01;4.32;;;2.08;;
45114;SDS011;30877;43.706;10.780;2023-08-08T07:27:31;3.00;;;1.35;;
45114;SDS011;30877;43.706;10.780;2023-08-08T07:30:00;5.07;;;1.08;;
45114;SDS011;30877;43.706;10.780;2023-08-08T07:32:29;3.70;;;1.30;;
45114;SDS011;30877;43.706;10.780;2023-08-08T07:35:01;3.60;;;0.90;;
45114;SDS011;30877;43.706;10.780;2023-08-08T07:37:32;3.60;;;0.70;;
45114;SDS011;30877;43.706;10.780;2023-08-08T07:40:01;3.50;;;0.90;;
45114;SDS011;30877;43.706;10.780;2023-08-08T07:42:31;1.95;;;0.80;;
45114;SDS011;30877;43.706;10.780;2023-08-08T07:44:59;1.63;;;0.90;;
45114;SDS011;30877;43.706;10.780;2023-08-08T07:47:27;2.35;;;0.80;;
45114;SDS011;30877;43.706;10.780;2023-08-08T07:49:56;2.30;;;0.80;;
45114;SDS011;30877;43.706;10.780;2023-08-08T07:52:26;2.13;;;0.55;;
45114;SDS011;30877;43.706;10.780;2023-08-08T07:54:54;1.75;;;0.60;;
45114;SDS011;30877;43.706;10.780;2023-08-08T07:57:22;2.63;;;0.63;;
45114;SDS011;30877;43.706;10.780;2023-08-08T07:59:51;1.98;;;0.47;;
45114;SDS011;30877;43.706;10.780;2023-08-08T08:02:20;1.77;;;0.40;;
45114;SDS011;30877;43.706;10.780;2023-08-08T08:04:48;3.25;;;0.68;;
45114;SDS011;30877;43.706;10.780;2023-08-08T08:07:17;3.15;;;0.50;;
45114;SDS011;30877;43.706;10.780;2023-08-08T08:09:47;1.58;;;0.38;;
45114;SDS011;30877;43.706;10.780;2023-08-08T08:12:16;1.13;;;0.60;;
45114;SDS011;30877;43.706;10.780;2023-08-08T08:14:44;3.08;;;0.60;;
45114;SDS011;30877;43.706;10.780;2023-08-08T08:17:13;1.60;;;0.40;;
45114;SDS011;30877;43.706;10.780;2023-08-08T08:19:41;3.42;;;0.40;;
45114;SDS011;30877;43.706;10.780;2023-08-08T08:22:10;2.67;;;0.50;;
45114;SDS011;30877;43.706;10.780;2023-08-08T08:24:40;3.05;;;0.60;;
45114;SDS011;30877;43.706;10.780;2023-08-08T08:27:10;3.80;;;0.70;;
45114;SDS011;30877;43.706;10.780;2023-08-08T08:29:38;2.10;;;0.60;;
45114;SDS011;30877;43.706;10.780;2023-08-08T08:32:07;4.55;;;0.60;;
45114;SDS011;30877;43.706;10.780;2023-08-08T08:34:36;1.75;;;0.50;;
45114;SDS011;30877;43.706;10.780;2023-08-08T08:37:04;1.98;;;0.50;;
45114;SDS011;30877;43.706;10.780;2023-08-08T08:39:33;1.85;;;0.82;;
45114;SDS011;30877;43.706;10.780;2023-08-08T08:42:01;1.38;;;0.50;;
45114;SDS011;30877;43.706;10.780;2023-08-08T08:44:34;2.58;;;0.57;;
45114;SDS011;30877;43.706;10.780;2023-08-08T08:47:03;0.80;;;0.50;;
45114;SDS011;30877;43.706;10.780;2023-08-08T08:49:39;1.52;;;0.70;;
45114;SDS011;30877;43.706;10.780;2023-08-08T08:52:10;2.25;;;0.40;;
45114;SDS011;30877;43.706;10.780;2023-08-08T08:54:39;2.28;;;0.60;;
45114;SDS011;30877;43.706;10.780;2023-08-08T08:57:08;1.38;;;0.50;;
45114;SDS011;30877;43.706;10.780;2023-08-08T08:59:39;2.53;;;0.50;;
45114;SDS011;30877;43.706;10.780;2023-08-08T09:02:09;4.80;;;0.75;;
45114;SDS011;30877;43.706;10.780;2023-08-08T09:04:39;4.20;;;0.68;;
45114;SDS011;30877;43.706;10.780;2023-08-08T09:07:07;2.35;;;0.38;;
45114;SDS011;30877;43.706;10.780;2023-08-08T09:09:37;1.23;;;0.50;;
45114;SDS011;30877;43.706;10.780;2023-08-08T09:12:06;2.25;;;0.35;;
45114;SDS011;30877;43.706;10.780;2023-08-08T09:14:39;3.38;;;0.63;;
45114;SDS011;30877;43.706;10.780;2023-08-08T09:17:10;1.60;;;0.50;;
45114;SDS011;30877;43.706;10.780;2023-08-08T09:19:42;1.50;;;0.47;;
45114;SDS011;30877;43.706;10.780;2023-08-08T09:22:12;0.85;;;0.40;;
45114;SDS011;30877;43.706;10.780;2023-08-08T09:24:41;0.65;;;0.40;;
45114;SDS011;30877;43.706;10.780;2023-08-08T09:27:10;1.33;;;0.68;;
45114;SDS011;30877;43.706;10.780;2023-08-08T09:29:41;1.00;;;0.50;;
45114;SDS011;30877;43.706;10.780;2023-08-08T09:32:10;0.50;;;0.30;;
45114;SDS011;30877;43.706;10.780;2023-08-08T09:34:41;2.42;;;0.45;;
45114;SDS011;30877;43.706;10.780;2023-08-08T09:37:13;4.30;;;0.47;;
45114;SDS011;30877;43.706;10.780;2023-08-08T09:39:41;3.10;;;0.50;;
45114;SDS011;30877;43.706;10.780;2023-08-08T09:42:10;0.85;;;0.40;;
45114;SDS011;30877;43.706;10.780;2023-08-08T09:44:39;3.83;;;0.50;;
45114;SDS011;30877;43.706;10.780;2023-08-08T09:47:12;1.80;;;0.47;;
45114;SDS011;30877;43.706;10.780;2023-08-08T09:49:40;2.25;;;0.40;;
45114;SDS011;30877;43.706;10.780;2023-08-08T09:52:10;1.48;;;0.38;;
45114;SDS011;30877;43.706;10.780;2023-08-08T09:54:39;5.80;;;0.63;;
45114;SDS011;30877;43.706;10.780;2023-08-08T09:57:09;1.58;;;0.50;;
45114;SDS011;30877;43.706;10.780;2023-08-08T09:59:38;2.72;;;0.40;;
45114;SDS011;30877;43.706;10.780;2023-08-08T10:02:09;2.38;;;0.38;;
45114;SDS011;30877;43.706;10.780;2023-08-08T10:04:43;2.47;;;0.50;;
45114;SDS011;30877;43.706;10.780;2023-08-08T10:07:13;0.95;;;0.35;;
45114;SDS011;30877;43.706;10.780;2023-08-08T10:09:42;1.88;;;0.47;;
45114;SDS011;30877;43.706;10.780;2023-08-08T10:12:11;1.90;;;0.40;;
45114;SDS011;30877;43.706;10.780;2023-08-08T10:14:42;1.08;;;0.40;;
45114;SDS011;30877;43.706;10.780;2023-08-08T10:17:13;0.95;;;0.50;;
45114;SDS011;30877;43.706;10.780;2023-08-08T10:19:49;0.93;;;0.30;;
45114;SDS011;30877;43.706;10.780;2023-08-08T10:22:20;2.15;;;0.60;;
45114;SDS011;30877;43.706;10.780;2023-08-08T10:24:51;0.93;;;0.50;;
45114;SDS011;30877;43.706;10.780;2023-08-08T10:27:27;2.08;;;0.40;;
45114;SDS011;30877;43.706;10.780;2023-08-08T10:30:02;2.55;;;0.50;;
45114;SDS011;30877;43.706;10.780;2023-08-08T10:32:37;2.10;;;0.32;;
45114;SDS011;30877;43.706;10.780;2023-08-08T10:35:08;0.80;;;0.40;;
45114;SDS011;30877;43.706;10.780;2023-08-08T10:37:37;2.45;;;0.77;;
45114;SDS011;30877;43.706;10.780;2023-08-08T10:40:07;1.02;;;0.40;;
45114;SDS011;30877;43.706;10.780;2023-08-08T10:42:42;1.67;;;0.40;;
45114;SDS011;30877;43.706;10.780;2023-08-08T10:45:15;3.55;;;0.30;;
45114;SDS011;30877;43.706;10.780;2023-08-08T10:47:44;0.88;;;0.45;;
45114;SDS011;30877;43.706;10.780;2023-08-08T10:50:13;1.15;;;0.30;;
45114;SDS011;30877;43.706;10.780;2023-08-08T10:52:55;1.55;;;0.40;;
45114;SDS011;30877;43.706;10.780;2023-08-08T10:55:25;2.30;;;0.50;;
45114;SDS011;30877;43.706;10.780;2023-08-08T10:57:55;1.02;;;0.40;;
45114;SDS011;30877;43.706;10.780;2023-08-08T11:00:27;0.60;;;0.40;;
45114;SDS011;30877;43.706;10.780;2023-08-08T11:02:58;0.82;;;0.50;;
45114;SDS011;30877;43.706;10.780;2023-08-08T11:05:28;0.75;;;0.30;;
45114;SDS011;30877;43.706;10.780;2023-08-08T11:07:58;1.50;;;0.30;;
45114;SDS011;30877;43.706;10.780;2023-08-08T11:10:26;0.80;;;0.40;;
45114;SDS011;30877;43.706;10.780;2023-08-08T11:12:58;0.50;;;0.32;;
45114;SDS011;30877;43.706;10.780;2023-08-08T11:15:29;1.38;;;0.40;;
45114;SDS011;30877;43.706;10.780;2023-08-08T11:18:01;1.55;;;0.30;;
45114;SDS011;30877;43.706;10.780;2023-08-08T11:20:31;2.22;;;0.50;;
45114;SDS011;30877;43.706;10.780;2023-08-08T11:23:00;1.23;;;0.30;;
45114;SDS011;30877;43.706;10.780;2023-08-08T11:25:31;1.63;;;0.32;;
45114;SDS011;30877;43.706;10.780;2023-08-08T11:27:59;0.80;;;0.40;;
45114;SDS011;30877;43.706;10.780;2023-08-08T11:30:30;0.88;;;0.40;;
45114;SDS011;30877;43.706;10.780;2023-08-08T11:33:01;1.70;;;0.40;;
45114;SDS011;30877;43.706;10.780;2023-08-08T11:35:33;1.80;;;0.52;;
45114;SDS011;30877;43.706;10.780;2023-08-08T11:38:02;2.05;;;0.50;;
45114;SDS011;30877;43.706;10.780;2023-08-08T11:40:31;2.78;;;0.35;;
45114;SDS011;30877;43.706;10.780;2023-08-08T11:43:00;0.75;;;0.35;;
45114;SDS011;30877;43.706;10.780;2023-08-08T11:45:31;0.57;;;0.40;;
45114;SDS011;30877;43.706;10.780;2023-08-08T11:48:00;0.77;;;0.30;;
45114;SDS011;30877;43.706;10.780;2023-08-08T11:50:29;1.25;;;0.60;;
45114;SDS011;30877;43.706;10.780;2023-08-08T11:52:57;0.65;;;0.45;;
45114;SDS011;30877;43.706;10.780;2023-08-08T11:55:28;1.38;;;0.30;;
45114;SDS011;30877;43.706;10.780;2023-08-08T11:57:57;0.52;;;0.40;;
45114;SDS011;30877;43.706;10.780;2023-08-08T12:00:31;2.35;;;0.50;;
45114;SDS011;30877;43.706;10.780;2023-08-08T12:03:00;1.23;;;0.40;;
45114;SDS011;30877;43.706;10.780;2023-08-08T12:05:36;0.52;;;0.40;;
45114;SDS011;30877;43.706;10.780;2023-08-08T12:08:05;1.60;;;0.52;;
45114;SDS011;30877;43.706;10.780;2023-08-08T12:10:34;0.82;;;0.40;;
45114;SDS011;30877;43.706;10.780;2023-08-08T12:13:02;1.27;;;0.32;;
45114;SDS011;30877;43.706;10.780;2023-08-08T12:15:33;1.45;;;0.40;;
45114;SDS011;30877;43.706;10.780;2023-08-08T12:18:03;0.50;;;0.38;;
45114;SDS011;30877;43.706;10.780;2023-08-08T12:20:32;0.80;;;0.55;;
45114;SDS011;30877;43.706;10.780;2023-08-08T12:23:00;2.83;;;0.50;;
45114;SDS011;30877;43.706;10.780;2023-08-08T12:25:29;1.73;;;0.50;;
45114;SDS011;30877;43.706;10.780;2023-08-08T12:27:57;1.05;;;0.50;;
45114;SDS011;30877;43.706;10.780;2023-08-08T12:30:25;0.47;;;0.30;;
45114;SDS011;30877;43.706;10.780;2023-08-08T12:32:55;0.75;;;0.60;;
45114;SDS011;30877;43.706;10.780;2023-08-08T12:35:24;4.28;;;0.60;;
45114;SDS011;30877;43.706;10.780;2023-08-08T12:37:54;2.05;;;0.40;;
45114;SDS011;30877;43.706;10.780;2023-08-08T12:40:23;1.98;;;0.30;;
45114;SDS011;30877;43.706;10.780;2023-08-08T12:42:52;0.80;;;0.60;;
45114;SDS011;30877;43.706;10.780;2023-08-08T12:45:21;2.35;;;0.50;;
45114;SDS011;30877;43.706;10.780;2023-08-08T12:47:49;0.50;;;0.30;;
45114;SDS011;30877;43.706;10.780;2023-08-08T12:50:20;4.90;;;0.50;;
45114;SDS011;30877;43.706;10.780;2023-08-08T12:52:48;1.95;;;0.60;;
45114;SDS011;30877;43.706;10.780;2023-08-08T12:55:16;1.90;;;0.50;;
45114;SDS011;30877;43.706;10.780;2023-08-08T12:57:45;2.38;;;0.38;;
45114;SDS011;30877;43.706;10.780;2023-08-08T13:00:14;2.80;;;0.43;;
45114;SDS011;30877;43.706;10.780;2023-08-08T13:02:43;2.50;;;0.40;;
45114;SDS011;30877;43.706;10.780;2023-08-08T13:05:12;1.27;;;0.40;;
45114;SDS011;30877;43.706;10.780;2023-08-08T13:07:42;0.88;;;0.55;;
45114;SDS011;30877;43.706;10.780;2023-08-08T13:10:10;0.88;;;0.50;;
45114;SDS011;30877;43.706;10.780;2023-08-08T13:12:38;3.15;;;0.57;;
45114;SDS011;30877;43.706;10.780;2023-08-08T13:15:07;2.50;;;0.43;;
45114;SDS011;30877;43.706;10.780;2023-08-08T13:17:36;3.10;;;0.40;;
45114;SDS011;30877;43.706;10.780;2023-08-08T13:20:04;1.50;;;0.40;;
45114;SDS011;30877;43.706;10.780;2023-08-08T13:22:35;0.82;;;0.47;;
45114;SDS011;30877;43.706;10.780;2023-08-08T13:25:05;2.03;;;0.75;;
45114;SDS011;30877;43.706;10.780;2023-08-08T13:27:34;1.70;;;0.60;;
45114;SDS011;30877;43.706;10.780;2023-08-08T13:30:03;3.28;;;0.70;;
45114;SDS011;30877;43.706;10.780;2023-08-08T13:32:33;3.80;;;0.70;;
45114;SDS011;30877;43.706;10.780;2023-08-08T13:35:01;1.05;;;0.50;;
45114;SDS011;30877;43.706;10.780;2023-08-08T13:37:30;1.40;;;0.85;;
45114;SDS011;30877;43.706;10.780;2023-08-08T13:39:58;3.63;;;0.80;;
45114;SDS011;30877;43.706;10.780;2023-08-08T13:42:28;1.27;;;0.52;;
45114;SDS011;30877;43.706;10.780;2023-08-08T13:44:57;3.33;;;0.77;;
45114;SDS011;30877;43.706;10.780;2023-08-08T13:47:25;2.33;;;0.65;;
45114;SDS011;30877;43.706;10.780;2023-08-08T13:49:53;2.83;;;0.70;;
45114;SDS011;30877;43.706;10.780;2023-08-08T13:52:22;3.40;;;0.90;;
45114;SDS011;30877;43.706;10.780;2023-08-08T13:54:51;2.22;;;0.60;;
45114;SDS011;30877;43.706;10.780;2023-08-08T13:57:19;2.15;;;0.60;;
45114;SDS011;30877;43.706;10.780;2023-08-08T13:59:49;1.20;;;0.50;;
45114;SDS011;30877;43.706;10.780;2023-08-08T14:02:18;2.05;;;0.65;;
45114;SDS011;30877;43.706;10.780;2023-08-08T14:04:46;4.75;;;0.95;;
45114;SDS011;30877;43.706;10.780;2023-08-08T14:07:14;4.05;;;1.42;;
45114;SDS011;30877;43.706;10.780;2023-08-08T14:09:43;2.13;;;0.70;;
45114;SDS011;30877;43.706;10.780;2023-08-08T14:12:11;1.42;;;0.52;;
45114;SDS011;30877;43.706;10.780;2023-08-08T14:14:39;2.60;;;0.73;;
45114;SDS011;30877;43.706;10.780;2023-08-08T14:17:09;4.78;;;0.80;;
45114;SDS011;30877;43.706;10.780;2023-08-08T14:19:38;4.60;;;0.70;;
45114;SDS011;30877;43.706;10.780;2023-08-08T14:22:06;4.20;;;1.00;;
45114;SDS011;30877;43.706;10.780;2023-08-08T14:24:34;1.10;;;0.80;;
45114;SDS011;30877;43.706;10.780;2023-08-08T14:27:03;2.45;;;0.70;;
45114;SDS011;30877;43.706;10.780;2023-08-08T14:29:31;2.90;;;1.40;;
45114;SDS011;30877;43.706;10.780;2023-08-08T14:32:00;3.47;;;1.85;;
45114;SDS011;30877;43.706;10.780;2023-08-08T14:34:30;2.72;;;2.42;;
45114;SDS011;30877;43.706;10.780;2023-08-08T14:37:00;3.47;;;2.75;;
45114;SDS011;30877;43.706;10.780;2023-08-08T14:39:29;3.25;;;2.30;;
45114;SDS011;30877;43.706;10.780;2023-08-08T14:41:57;2.50;;;1.70;;
45114;SDS011;30877;43.706;10.780;2023-08-08T14:44:26;3.05;;;1.85;;
45114;SDS011;30877;43.706;10.780;2023-08-08T14:46:54;3.97;;;1.75;;